sensor_id;sensor_type;location;lat;lon;timestamp;P1;durP1;ratioP1;P2;durP2;ratioP2
20525;SDS011;10421;49.142;9.232;2023-07-24T00:01:48;8.17;;;4.60;;
20525;SDS011;10421;49.142;9.232;2023-07-24T00:04:15;13.53;;;5.73;;
20525;SDS011;10421;49.142;9.232;2023-07-24T00:06:41;7.60;;;4.47;;
20525;SDS011;10421;49.142;9.232;2023-07-24T00:09:08;7.97;;;4.40;;
20525;SDS011;10421;49.142;9.232;2023-07-24T00:11:35;8.50;;;4.40;;
20525;SDS011;10421;49.142;9.232;2023-07-24T00:14:01;11.10;;;5.27;;
20525;SDS011;10421;49.142;9.232;2023-07-24T00:16:28;8.63;;;4.30;;
20525;SDS011;10421;49.142;9.232;2023-07-24T00:18:56;9.67;;;5.43;;
20525;SDS011;10421;49.142;9.232;2023-07-24T00:21:23;8.50;;;4.70;;
20525;SDS011;10421;49.142;9.232;2023-07-24T00:23:49;12.73;;;5.50;;
20525;SDS011;10421;49.142;9.232;2023-07-24T00:26:16;13.20;;;5.20;;
20525;SDS011;10421;49.142;9.232;2023-07-24T00:28:43;11.50;;;4.90;;
20525;SDS011;10421;49.142;9.232;2023-07-24T00:31:09;8.27;;;4.53;;
20525;SDS011;10421;49.142;9.232;2023-07-24T00:33:36;9.60;;;5.23;;
20525;SDS011;10421;49.142;9.232;2023-07-24T00:36:04;11.52;;;4.80;;
20525;SDS011;10421;49.142;9.232;2023-07-24T00:38:31;9.40;;;5.10;;
20525;SDS011;10421;49.142;9.232;2023-07-24T00:40:58;9.23;;;5.00;;
20525;SDS011;10421;49.142;9.232;2023-07-24T00:43:24;11.13;;;5.27;;
20525;SDS011;10421;49.142;9.232;2023-07-24T00:45:51;8.27;;;5.40;;
20525;SDS011;10421;49.142;9.232;2023-07-24T00:48:19;13.33;;;5.77;;
20525;SDS011;10421;49.142;9.232;2023-07-24T00:50:46;8.70;;;4.83;;
20525;SDS011;10421;49.142;9.232;2023-07-24T00:53:15;10.10;;;5.20;;
20525;SDS011;10421;49.142;9.232;2023-07-24T00:55:44;9.93;;;4.80;;
20525;SDS011;10421;49.142;9.232;2023-07-24T00:58:12;9.40;;;4.97;;
20525;SDS011;10421;49.142;9.232;2023-07-24T01:00:38;17.63;;;10.00;;
20525;SDS011;10421;49.142;9.232;2023-07-24T01:03:06;14.40;;;8.00;;
20525;SDS011;10421;49.142;9.232;2023-07-24T01:05:33;13.03;;;7.07;;
20525;SDS011;10421;49.142;9.232;2023-07-24T01:08:00;19.57;;;10.90;;
20525;SDS011;10421;49.142;9.232;2023-07-24T01:10:29;22.93;;;12.43;;
20525;SDS011;10421;49.142;9.232;2023-07-24T01:12:58;11.57;;;5.07;;
20525;SDS011;10421;49.142;9.232;2023-07-24T01:15:28;9.50;;;5.10;;
20525;SDS011;10421;49.142;9.232;2023-07-24T01:17:59;11.40;;;6.10;;
20525;SDS011;10421;49.142;9.232;2023-07-24T01:20:28;11.88;;;6.03;;
20525;SDS011;10421;49.142;9.232;2023-07-24T01:23:04;14.87;;;6.70;;
20525;SDS011;10421;49.142;9.232;2023-07-24T01:25:48;10.15;;;4.80;;
20525;SDS011;10421;49.142;9.232;2023-07-24T01:28:21;7.50;;;4.90;;
20525;SDS011;10421;49.142;9.232;2023-07-24T01:30:48;9.37;;;4.87;;
20525;SDS011;10421;49.142;9.232;2023-07-24T01:33:15;10.10;;;5.30;;
20525;SDS011;10421;49.142;9.232;2023-07-24T01:35:41;9.23;;;5.00;;
20525;SDS011;10421;49.142;9.232;2023-07-24T01:38:09;9.40;;;5.27;;
20525;SDS011;10421;49.142;9.232;2023-07-24T01:40:36;9.63;;;5.30;;
20525;SDS011;10421;49.142;9.232;2023-07-24T01:43:05;8.50;;;4.90;;
20525;SDS011;10421;49.142;9.232;2023-07-24T01:45:32;11.37;;;5.13;;
20525;SDS011;10421;49.142;9.232;2023-07-24T01:47:58;13.10;;;5.80;;
20525;SDS011;10421;49.142;9.232;2023-07-24T01:50:25;8.33;;;4.53;;
20525;SDS011;10421;49.142;9.232;2023-07-24T01:52:52;15.13;;;6.00;;
20525;SDS011;10421;49.142;9.232;2023-07-24T01:55:19;11.47;;;5.57;;
20525;SDS011;10421;49.142;9.232;2023-07-24T01:57:46;9.93;;;5.40;;
20525;SDS011;10421;49.142;9.232;2023-07-24T02:00:14;10.82;;;5.22;;
20525;SDS011;10421;49.142;9.232;2023-07-24T02:02:41;9.70;;;5.37;;
20525;SDS011;10421;49.142;9.232;2023-07-24T02:05:08;9.93;;;5.60;;
20525;SDS011;10421;49.142;9.232;2023-07-24T02:07:35;8.23;;;4.80;;
20525;SDS011;10421;49.142;9.232;2023-07-24T02:10:01;8.80;;;5.30;;
20525;SDS011;10421;49.142;9.232;2023-07-24T02:12:28;9.07;;;5.10;;
20525;SDS011;10421;49.142;9.232;2023-07-24T02:14:55;8.83;;;5.00;;
20525;SDS011;10421;49.142;9.232;2023-07-24T02:17:23;9.30;;;5.07;;
20525;SDS011;10421;49.142;9.232;2023-07-24T02:19:50;9.87;;;5.47;;
20525;SDS011;10421;49.142;9.232;2023-07-24T02:22:17;9.05;;;5.10;;
20525;SDS011;10421;49.142;9.232;2023-07-24T02:24:43;10.13;;;4.90;;
20525;SDS011;10421;49.142;9.232;2023-07-24T02:27:12;12.97;;;6.00;;
20525;SDS011;10421;49.142;9.232;2023-07-24T02:29:39;9.17;;;5.30;;
20525;SDS011;10421;49.142;9.232;2023-07-24T02:32:06;9.33;;;5.00;;
20525;SDS011;10421;49.142;9.232;2023-07-24T02:34:35;12.97;;;6.03;;
20525;SDS011;10421;49.142;9.232;2023-07-24T02:37:01;11.63;;;6.13;;
20525;SDS011;10421;49.142;9.232;2023-07-24T02:39:28;10.03;;;5.30;;
20525;SDS011;10421;49.142;9.232;2023-07-24T02:41:55;11.80;;;5.67;;
20525;SDS011;10421;49.142;9.232;2023-07-24T02:44:22;9.47;;;5.90;;
20525;SDS011;10421;49.142;9.232;2023-07-24T02:46:48;8.87;;;5.13;;
20525;SDS011;10421;49.142;9.232;2023-07-24T02:49:15;7.80;;;4.83;;
20525;SDS011;10421;49.142;9.232;2023-07-24T02:51:43;10.93;;;5.63;;
20525;SDS011;10421;49.142;9.232;2023-07-24T02:54:10;7.83;;;4.80;;
20525;SDS011;10421;49.142;9.232;2023-07-24T02:56:36;11.70;;;5.40;;
20525;SDS011;10421;49.142;9.232;2023-07-24T02:59:04;9.90;;;5.60;;
20525;SDS011;10421;49.142;9.232;2023-07-24T03:01:30;12.77;;;6.60;;
20525;SDS011;10421;49.142;9.232;2023-07-24T03:03:57;10.10;;;5.07;;
20525;SDS011;10421;49.142;9.232;2023-07-24T03:06:25;9.97;;;5.23;;
20525;SDS011;10421;49.142;9.232;2023-07-24T03:08:53;9.30;;;5.27;;
20525;SDS011;10421;49.142;9.232;2023-07-24T03:11:20;10.30;;;6.03;;
20525;SDS011;10421;49.142;9.232;2023-07-24T03:13:46;8.77;;;4.63;;
20525;SDS011;10421;49.142;9.232;2023-07-24T03:16:13;14.10;;;6.50;;
20525;SDS011;10421;49.142;9.232;2023-07-24T03:18:42;14.13;;;6.80;;
20525;SDS011;10421;49.142;9.232;2023-07-24T03:21:08;10.40;;;5.50;;
20525;SDS011;10421;49.142;9.232;2023-07-24T03:23:35;10.20;;;5.20;;
20525;SDS011;10421;49.142;9.232;2023-07-24T03:26:03;14.50;;;6.50;;
20525;SDS011;10421;49.142;9.232;2023-07-24T03:28:30;13.57;;;6.80;;
20525;SDS011;10421;49.142;9.232;2023-07-24T03:30:56;17.87;;;7.80;;
20525;SDS011;10421;49.142;9.232;2023-07-24T03:33:23;14.80;;;7.90;;
20525;SDS011;10421;49.142;9.232;2023-07-24T03:35:50;14.27;;;7.00;;
20525;SDS011;10421;49.142;9.232;2023-07-24T03:38:17;12.73;;;6.70;;
20525;SDS011;10421;49.142;9.232;2023-07-24T03:40:43;19.47;;;7.50;;
20525;SDS011;10421;49.142;9.232;2023-07-24T03:43:11;13.77;;;7.20;;
20525;SDS011;10421;49.142;9.232;2023-07-24T03:45:38;14.13;;;7.10;;
20525;SDS011;10421;49.142;9.232;2023-07-24T03:48:05;14.52;;;7.15;;
20525;SDS011;10421;49.142;9.232;2023-07-24T03:50:31;10.43;;;6.43;;
20525;SDS011;10421;49.142;9.232;2023-07-24T03:52:58;11.83;;;6.83;;
20525;SDS011;10421;49.142;9.232;2023-07-24T03:55:25;15.23;;;7.23;;
20525;SDS011;10421;49.142;9.232;2023-07-24T03:57:51;11.00;;;6.20;;
20525;SDS011;10421;49.142;9.232;2023-07-24T04:00:19;16.50;;;7.77;;
20525;SDS011;10421;49.142;9.232;2023-07-24T04:02:46;13.97;;;6.67;;
20525;SDS011;10421;49.142;9.232;2023-07-24T04:05:13;18.73;;;8.27;;
20525;SDS011;10421;49.142;9.232;2023-07-24T04:07:40;14.93;;;7.40;;
20525;SDS011;10421;49.142;9.232;2023-07-24T04:10:07;15.83;;;7.80;;
20525;SDS011;10421;49.142;9.232;2023-07-24T04:12:34;13.57;;;7.10;;
20525;SDS011;10421;49.142;9.232;2023-07-24T04:15:01;14.07;;;7.77;;
20525;SDS011;10421;49.142;9.232;2023-07-24T04:17:29;10.43;;;6.13;;
20525;SDS011;10421;49.142;9.232;2023-07-24T04:19:57;12.43;;;6.60;;
20525;SDS011;10421;49.142;9.232;2023-07-24T04:22:25;10.93;;;5.90;;
20525;SDS011;10421;49.142;9.232;2023-07-24T04:24:51;12.33;;;6.67;;
20525;SDS011;10421;49.142;9.232;2023-07-24T04:27:18;14.23;;;7.63;;
20525;SDS011;10421;49.142;9.232;2023-07-24T04:29:45;13.70;;;7.30;;
20525;SDS011;10421;49.142;9.232;2023-07-24T04:32:11;16.23;;;7.83;;
20525;SDS011;10421;49.142;9.232;2023-07-24T04:34:39;13.87;;;7.50;;
20525;SDS011;10421;49.142;9.232;2023-07-24T04:37:06;11.97;;;7.37;;
20525;SDS011;10421;49.142;9.232;2023-07-24T04:39:33;18.53;;;8.77;;
20525;SDS011;10421;49.142;9.232;2023-07-24T04:42:00;15.17;;;7.80;;
20525;SDS011;10421;49.142;9.232;2023-07-24T04:44:26;11.02;;;6.28;;
20525;SDS011;10421;49.142;9.232;2023-07-24T04:46:53;16.73;;;7.60;;
20525;SDS011;10421;49.142;9.232;2023-07-24T04:49:20;15.30;;;7.50;;
20525;SDS011;10421;49.142;9.232;2023-07-24T04:51:49;12.57;;;7.13;;
20525;SDS011;10421;49.142;9.232;2023-07-24T04:54:16;14.90;;;8.10;;
20525;SDS011;10421;49.142;9.232;2023-07-24T04:56:42;17.90;;;8.23;;
20525;SDS011;10421;49.142;9.232;2023-07-24T04:59:09;14.68;;;7.22;;
20525;SDS011;10421;49.142;9.232;2023-07-24T05:01:36;16.93;;;7.90;;
20525;SDS011;10421;49.142;9.232;2023-07-24T05:04:03;16.97;;;7.80;;
20525;SDS011;10421;49.142;9.232;2023-07-24T05:06:29;11.90;;;6.70;;
20525;SDS011;10421;49.142;9.232;2023-07-24T05:08:57;16.93;;;8.30;;
20525;SDS011;10421;49.142;9.232;2023-07-24T05:11:24;16.33;;;7.63;;
20525;SDS011;10421;49.142;9.232;2023-07-24T05:13:51;10.33;;;6.57;;
20525;SDS011;10421;49.142;9.232;2023-07-24T05:16:17;18.53;;;9.27;;
20525;SDS011;10421;49.142;9.232;2023-07-24T05:18:44;16.47;;;9.20;;
20525;SDS011;10421;49.142;9.232;2023-07-24T05:21:11;14.70;;;7.90;;
20525;SDS011;10421;49.142;9.232;2023-07-24T05:23:38;14.60;;;7.80;;
20525;SDS011;10421;49.142;9.232;2023-07-24T05:26:06;14.53;;;7.83;;
20525;SDS011;10421;49.142;9.232;2023-07-24T05:28:33;13.73;;;8.00;;
20525;SDS011;10421;49.142;9.232;2023-07-24T05:31:00;18.40;;;8.53;;
20525;SDS011;10421;49.142;9.232;2023-07-24T05:33:28;16.13;;;8.17;;
20525;SDS011;10421;49.142;9.232;2023-07-24T05:35:57;18.40;;;10.25;;
20525;SDS011;10421;49.142;9.232;2023-07-24T05:38:24;24.97;;;9.80;;
20525;SDS011;10421;49.142;9.232;2023-07-24T05:40:54;18.90;;;9.90;;
20525;SDS011;10421;49.142;9.232;2023-07-24T05:43:22;21.07;;;10.37;;
20525;SDS011;10421;49.142;9.232;2023-07-24T05:45:49;16.13;;;8.40;;
20525;SDS011;10421;49.142;9.232;2023-07-24T05:48:16;23.00;;;9.90;;
20525;SDS011;10421;49.142;9.232;2023-07-24T05:50:43;16.37;;;8.07;;
20525;SDS011;10421;49.142;9.232;2023-07-24T05:53:10;17.57;;;7.63;;
20525;SDS011;10421;49.142;9.232;2023-07-24T05:55:36;17.30;;;8.27;;
20525;SDS011;10421;49.142;9.232;2023-07-24T05:58:03;17.53;;;7.37;;
20525;SDS011;10421;49.142;9.232;2023-07-24T06:00:31;15.90;;;7.43;;
20525;SDS011;10421;49.142;9.232;2023-07-24T06:02:58;27.60;;;10.40;;
20525;SDS011;10421;49.142;9.232;2023-07-24T06:05:25;17.17;;;7.95;;
20525;SDS011;10421;49.142;9.232;2023-07-24T06:07:52;14.77;;;8.10;;
20525;SDS011;10421;49.142;9.232;2023-07-24T06:10:19;19.87;;;9.87;;
20525;SDS011;10421;49.142;9.232;2023-07-24T06:12:45;20.43;;;9.47;;
20525;SDS011;10421;49.142;9.232;2023-07-24T06:15:13;17.50;;;8.90;;
20525;SDS011;10421;49.142;9.232;2023-07-24T06:17:41;23.97;;;10.40;;
20525;SDS011;10421;49.142;9.232;2023-07-24T06:20:08;18.00;;;8.45;;
20525;SDS011;10421;49.142;9.232;2023-07-24T06:22:35;16.33;;;8.27;;
20525;SDS011;10421;49.142;9.232;2023-07-24T06:25:02;15.83;;;8.60;;
20525;SDS011;10421;49.142;9.232;2023-07-24T06:27:29;16.50;;;8.43;;
20525;SDS011;10421;49.142;9.232;2023-07-24T06:29:56;14.90;;;7.93;;
20525;SDS011;10421;49.142;9.232;2023-07-24T06:32:22;18.60;;;8.83;;
20525;SDS011;10421;49.142;9.232;2023-07-24T06:34:50;18.98;;;8.63;;
20525;SDS011;10421;49.142;9.232;2023-07-24T06:37:17;13.30;;;7.57;;
20525;SDS011;10421;49.142;9.232;2023-07-24T06:39:44;15.90;;;7.87;;
20525;SDS011;10421;49.142;9.232;2023-07-24T06:42:11;15.53;;;7.43;;
20525;SDS011;10421;49.142;9.232;2023-07-24T06:44:37;11.37;;;6.47;;
20525;SDS011;10421;49.142;9.232;2023-07-24T06:47:04;13.93;;;6.35;;
20525;SDS011;10421;49.142;9.232;2023-07-24T06:49:31;12.73;;;6.40;;
20525;SDS011;10421;49.142;9.232;2023-07-24T06:51:59;14.40;;;6.63;;
20525;SDS011;10421;49.142;9.232;2023-07-24T06:54:25;17.35;;;8.05;;
20525;SDS011;10421;49.142;9.232;2023-07-24T06:56:52;15.30;;;8.30;;
20525;SDS011;10421;49.142;9.232;2023-07-24T06:59:19;9.90;;;6.37;;
20525;SDS011;10421;49.142;9.232;2023-07-24T07:01:45;14.43;;;7.27;;
20525;SDS011;10421;49.142;9.232;2023-07-24T07:04:12;14.63;;;7.03;;
20525;SDS011;10421;49.142;9.232;2023-07-24T07:06:39;13.27;;;6.88;;
20525;SDS011;10421;49.142;9.232;2023-07-24T07:09:07;13.13;;;6.40;;
20525;SDS011;10421;49.142;9.232;2023-07-24T07:11:34;13.30;;;7.10;;
20525;SDS011;10421;49.142;9.232;2023-07-24T07:14:01;13.13;;;6.07;;
20525;SDS011;10421;49.142;9.232;2023-07-24T07:16:28;11.73;;;6.33;;
20525;SDS011;10421;49.142;9.232;2023-07-24T07:18:54;15.43;;;6.90;;
20525;SDS011;10421;49.142;9.232;2023-07-24T07:21:21;12.47;;;6.50;;
20525;SDS011;10421;49.142;9.232;2023-07-24T07:23:48;14.00;;;6.67;;
20525;SDS011;10421;49.142;9.232;2023-07-24T07:26:16;14.20;;;7.05;;
20525;SDS011;10421;49.142;9.232;2023-07-24T07:28:43;23.37;;;8.83;;
20525;SDS011;10421;49.142;9.232;2023-07-24T07:31:09;14.10;;;7.07;;
20525;SDS011;10421;49.142;9.232;2023-07-24T07:33:36;13.95;;;6.30;;
20525;SDS011;10421;49.142;9.232;2023-07-24T07:36:03;16.93;;;7.40;;
20525;SDS011;10421;49.142;9.232;2023-07-24T07:38:31;19.20;;;7.60;;
20525;SDS011;10421;49.142;9.232;2023-07-24T07:40:57;12.57;;;6.03;;
20525;SDS011;10421;49.142;9.232;2023-07-24T07:43:25;12.77;;;6.43;;
20525;SDS011;10421;49.142;9.232;2023-07-24T07:45:52;13.97;;;6.30;;
20525;SDS011;10421;49.142;9.232;2023-07-24T07:48:19;13.03;;;5.90;;
20525;SDS011;10421;49.142;9.232;2023-07-24T07:50:49;12.30;;;6.57;;
20525;SDS011;10421;49.142;9.232;2023-07-24T07:53:16;11.67;;;6.47;;
20525;SDS011;10421;49.142;9.232;2023-07-24T07:55:43;13.80;;;6.28;;
20525;SDS011;10421;49.142;9.232;2023-07-24T07:58:09;20.83;;;6.07;;
20525;SDS011;10421;49.142;9.232;2023-07-24T08:00:37;14.05;;;6.70;;
20525;SDS011;10421;49.142;9.232;2023-07-24T08:03:06;14.17;;;7.00;;
20525;SDS011;10421;49.142;9.232;2023-07-24T08:05:32;13.60;;;7.17;;
20525;SDS011;10421;49.142;9.232;2023-07-24T08:07:59;13.87;;;6.70;;
20525;SDS011;10421;49.142;9.232;2023-07-24T08:10:26;14.20;;;6.67;;
20525;SDS011;10421;49.142;9.232;2023-07-24T08:12:52;15.23;;;7.30;;
20525;SDS011;10421;49.142;9.232;2023-07-24T08:15:19;16.10;;;7.03;;
20525;SDS011;10421;49.142;9.232;2023-07-24T08:17:47;13.47;;;7.13;;
20525;SDS011;10421;49.142;9.232;2023-07-24T08:20:14;16.40;;;6.67;;
20525;SDS011;10421;49.142;9.232;2023-07-24T08:22:40;11.18;;;6.13;;
20525;SDS011;10421;49.142;9.232;2023-07-24T08:25:07;12.03;;;6.87;;
20525;SDS011;10421;49.142;9.232;2023-07-24T08:27:34;13.87;;;6.97;;
20525;SDS011;10421;49.142;9.232;2023-07-24T08:30:01;11.63;;;6.33;;
20525;SDS011;10421;49.142;9.232;2023-07-24T08:32:28;17.43;;;6.77;;
20525;SDS011;10421;49.142;9.232;2023-07-24T08:34:56;14.25;;;6.90;;
20525;SDS011;10421;49.142;9.232;2023-07-24T08:37:23;14.48;;;6.88;;
20525;SDS011;10421;49.142;9.232;2023-07-24T08:39:50;13.10;;;7.03;;
20525;SDS011;10421;49.142;9.232;2023-07-24T08:42:16;12.50;;;6.70;;
20525;SDS011;10421;49.142;9.232;2023-07-24T08:44:45;16.23;;;7.00;;
20525;SDS011;10421;49.142;9.232;2023-07-24T08:47:12;14.33;;;7.00;;
20525;SDS011;10421;49.142;9.232;2023-07-24T08:49:40;17.67;;;7.67;;
20525;SDS011;10421;49.142;9.232;2023-07-24T08:52:10;16.00;;;7.23;;
20525;SDS011;10421;49.142;9.232;2023-07-24T08:54:37;14.70;;;6.60;;
20525;SDS011;10421;49.142;9.232;2023-07-24T08:57:06;18.63;;;7.70;;
20525;SDS011;10421;49.142;9.232;2023-07-24T08:59:33;11.90;;;6.27;;
20525;SDS011;10421;49.142;9.232;2023-07-24T09:02:00;15.57;;;7.03;;
20525;SDS011;10421;49.142;9.232;2023-07-24T09:04:28;17.63;;;7.93;;
20525;SDS011;10421;49.142;9.232;2023-07-24T09:06:56;12.90;;;7.17;;
20525;SDS011;10421;49.142;9.232;2023-07-24T09:09:28;19.23;;;7.80;;
20525;SDS011;10421;49.142;9.232;2023-07-24T09:11:56;11.90;;;5.97;;
20525;SDS011;10421;49.142;9.232;2023-07-24T09:14:24;13.30;;;6.80;;
20525;SDS011;10421;49.142;9.232;2023-07-24T09:17:01;16.37;;;7.53;;
20525;SDS011;10421;49.142;9.232;2023-07-24T09:19:29;12.43;;;6.27;;
20525;SDS011;10421;49.142;9.232;2023-07-24T09:21:56;12.87;;;7.17;;
20525;SDS011;10421;49.142;9.232;2023-07-24T09:24:34;10.67;;;6.30;;
20525;SDS011;10421;49.142;9.232;2023-07-24T09:27:04;13.57;;;6.95;;
20525;SDS011;10421;49.142;9.232;2023-07-24T09:29:31;14.20;;;7.10;;
20525;SDS011;10421;49.142;9.232;2023-07-24T09:31:59;15.25;;;7.25;;
20525;SDS011;10421;49.142;9.232;2023-07-24T09:34:26;12.87;;;6.90;;
20525;SDS011;10421;49.142;9.232;2023-07-24T09:36:53;13.17;;;6.20;;
20525;SDS011;10421;49.142;9.232;2023-07-24T09:39:22;14.07;;;7.20;;
20525;SDS011;10421;49.142;9.232;2023-07-24T09:41:51;14.33;;;7.50;;
20525;SDS011;10421;49.142;9.232;2023-07-24T09:44:18;17.20;;;7.23;;
20525;SDS011;10421;49.142;9.232;2023-07-24T09:46:45;15.38;;;7.05;;
20525;SDS011;10421;49.142;9.232;2023-07-24T09:49:12;15.00;;;7.13;;
20525;SDS011;10421;49.142;9.232;2023-07-24T09:51:39;16.83;;;8.03;;
20525;SDS011;10421;49.142;9.232;2023-07-24T09:54:15;22.13;;;10.37;;
20525;SDS011;10421;49.142;9.232;2023-07-24T09:56:45;26.03;;;11.53;;
20525;SDS011;10421;49.142;9.232;2023-07-24T09:59:15;14.68;;;7.63;;
20525;SDS011;10421;49.142;9.232;2023-07-24T10:01:42;18.00;;;8.27;;
20525;SDS011;10421;49.142;9.232;2023-07-24T10:04:09;14.47;;;7.20;;
20525;SDS011;10421;49.142;9.232;2023-07-24T10:06:36;19.53;;;8.37;;
20525;SDS011;10421;49.142;9.232;2023-07-24T10:09:03;17.25;;;7.25;;
20525;SDS011;10421;49.142;9.232;2023-07-24T10:11:31;16.17;;;8.05;;
20525;SDS011;10421;49.142;9.232;2023-07-24T10:13:58;13.27;;;6.97;;
20525;SDS011;10421;49.142;9.232;2023-07-24T10:16:26;17.53;;;8.43;;
20525;SDS011;10421;49.142;9.232;2023-07-24T10:18:54;17.83;;;7.97;;
20525;SDS011;10421;49.142;9.232;2023-07-24T10:21:25;15.43;;;7.23;;
20525;SDS011;10421;49.142;9.232;2023-07-24T10:23:53;16.07;;;8.27;;
20525;SDS011;10421;49.142;9.232;2023-07-24T10:26:24;12.00;;;7.10;;
20525;SDS011;10421;49.142;9.232;2023-07-24T10:28:51;18.03;;;8.53;;
20525;SDS011;10421;49.142;9.232;2023-07-24T10:31:19;19.97;;;8.87;;
20525;SDS011;10421;49.142;9.232;2023-07-24T10:33:48;19.73;;;8.27;;
20525;SDS011;10421;49.142;9.232;2023-07-24T10:36:16;16.57;;;8.10;;
20525;SDS011;10421;49.142;9.232;2023-07-24T10:38:44;21.43;;;8.50;;
20525;SDS011;10421;49.142;9.232;2023-07-24T10:41:12;19.30;;;8.07;;
20525;SDS011;10421;49.142;9.232;2023-07-24T10:43:42;20.57;;;8.87;;
20525;SDS011;10421;49.142;9.232;2023-07-24T10:46:10;20.80;;;9.10;;
20525;SDS011;10421;49.142;9.232;2023-07-24T10:48:37;22.67;;;9.30;;
20525;SDS011;10421;49.142;9.232;2023-07-24T10:51:09;21.00;;;8.97;;
20525;SDS011;10421;49.142;9.232;2023-07-24T10:53:40;19.80;;;8.50;;
20525;SDS011;10421;49.142;9.232;2023-07-24T10:56:10;14.93;;;7.67;;
20525;SDS011;10421;49.142;9.232;2023-07-24T10:58:36;14.27;;;7.27;;
20525;SDS011;10421;49.142;9.232;2023-07-24T11:01:03;18.73;;;7.97;;
20525;SDS011;10421;49.142;9.232;2023-07-24T11:03:31;19.83;;;7.83;;
20525;SDS011;10421;49.142;9.232;2023-07-24T11:05:58;13.35;;;7.30;;
20525;SDS011;10421;49.142;9.232;2023-07-24T11:08:26;15.13;;;7.53;;
20525;SDS011;10421;49.142;9.232;2023-07-24T11:10:58;15.23;;;7.37;;
20525;SDS011;10421;49.142;9.232;2023-07-24T11:13:27;13.57;;;6.50;;
20525;SDS011;10421;49.142;9.232;2023-07-24T11:15:54;14.40;;;7.50;;
20525;SDS011;10421;49.142;9.232;2023-07-24T11:18:21;16.70;;;7.70;;
20525;SDS011;10421;49.142;9.232;2023-07-24T11:20:51;23.80;;;9.17;;
20525;SDS011;10421;49.142;9.232;2023-07-24T11:23:19;12.75;;;6.95;;
20525;SDS011;10421;49.142;9.232;2023-07-24T11:25:49;18.67;;;8.10;;
20525;SDS011;10421;49.142;9.232;2023-07-24T11:28:17;14.50;;;6.90;;
20525;SDS011;10421;49.142;9.232;2023-07-24T11:30:44;16.37;;;7.20;;
20525;SDS011;10421;49.142;9.232;2023-07-24T11:33:12;17.70;;;7.80;;
20525;SDS011;10421;49.142;9.232;2023-07-24T11:35:41;13.63;;;6.70;;
20525;SDS011;10421;49.142;9.232;2023-07-24T11:38:08;12.47;;;6.53;;
20525;SDS011;10421;49.142;9.232;2023-07-24T11:40:36;16.83;;;7.20;;
20525;SDS011;10421;49.142;9.232;2023-07-24T11:43:15;16.13;;;7.00;;
20525;SDS011;10421;49.142;9.232;2023-07-24T11:45:43;15.10;;;7.47;;
20525;SDS011;10421;49.142;9.232;2023-07-24T11:48:12;12.07;;;6.60;;
20525;SDS011;10421;49.142;9.232;2023-07-24T11:50:42;15.90;;;6.97;;
20525;SDS011;10421;49.142;9.232;2023-07-24T11:53:18;12.82;;;6.03;;
20525;SDS011;10421;49.142;9.232;2023-07-24T11:55:47;12.40;;;6.07;;
20525;SDS011;10421;49.142;9.232;2023-07-24T11:58:16;16.50;;;6.40;;
20525;SDS011;10421;49.142;9.232;2023-07-24T12:00:43;11.13;;;6.30;;
20525;SDS011;10421;49.142;9.232;2023-07-24T12:03:09;13.80;;;6.13;;
20525;SDS011;10421;49.142;9.232;2023-07-24T12:05:39;9.87;;;5.83;;
20525;SDS011;10421;49.142;9.232;2023-07-24T12:08:07;13.93;;;6.73;;
20525;SDS011;10421;49.142;9.232;2023-07-24T12:10:35;11.57;;;6.40;;
20525;SDS011;10421;49.142;9.232;2023-07-24T12:13:03;14.50;;;7.10;;
20525;SDS011;10421;49.142;9.232;2023-07-24T12:15:32;13.60;;;6.73;;
20525;SDS011;10421;49.142;9.232;2023-07-24T12:18:00;11.70;;;6.00;;
20525;SDS011;10421;49.142;9.232;2023-07-24T12:20:27;11.20;;;5.83;;
20525;SDS011;10421;49.142;9.232;2023-07-24T12:22:54;12.00;;;5.73;;
20525;SDS011;10421;49.142;9.232;2023-07-24T12:25:21;16.70;;;6.37;;
20525;SDS011;10421;49.142;9.232;2023-07-24T12:27:48;18.63;;;7.30;;
20525;SDS011;10421;49.142;9.232;2023-07-24T12:30:15;9.23;;;5.70;;
20525;SDS011;10421;49.142;9.232;2023-07-24T12:32:44;14.50;;;6.37;;
20525;SDS011;10421;49.142;9.232;2023-07-24T12:35:10;12.73;;;6.45;;
20525;SDS011;10421;49.142;9.232;2023-07-24T12:37:37;10.60;;;5.80;;
20525;SDS011;10421;49.142;9.232;2023-07-24T12:40:05;10.80;;;6.10;;
20525;SDS011;10421;49.142;9.232;2023-07-24T12:42:33;12.13;;;5.73;;
20525;SDS011;10421;49.142;9.232;2023-07-24T12:44:59;11.37;;;6.10;;
20525;SDS011;10421;49.142;9.232;2023-07-24T12:47:27;22.57;;;6.80;;
20525;SDS011;10421;49.142;9.232;2023-07-24T12:49:56;11.07;;;6.13;;
20525;SDS011;10421;49.142;9.232;2023-07-24T12:52:24;9.70;;;5.10;;
20525;SDS011;10421;49.142;9.232;2023-07-24T12:54:51;13.47;;;5.60;;
20525;SDS011;10421;49.142;9.232;2023-07-24T12:57:18;9.47;;;4.60;;
20525;SDS011;10421;49.142;9.232;2023-07-24T12:59:44;12.97;;;6.53;;
20525;SDS011;10421;49.142;9.232;2023-07-24T13:02:11;13.10;;;6.15;;
20525;SDS011;10421;49.142;9.232;2023-07-24T13:04:38;13.93;;;4.73;;
20525;SDS011;10421;49.142;9.232;2023-07-24T13:07:06;12.77;;;5.73;;
20525;SDS011;10421;49.142;9.232;2023-07-24T13:09:33;9.65;;;4.80;;
20525;SDS011;10421;49.142;9.232;2023-07-24T13:12:00;8.37;;;5.00;;
20525;SDS011;10421;49.142;9.232;2023-07-24T13:14:26;11.43;;;5.70;;
20525;SDS011;10421;49.142;9.232;2023-07-24T13:16:53;13.33;;;5.80;;
20525;SDS011;10421;49.142;9.232;2023-07-24T13:19:21;10.50;;;5.30;;
20525;SDS011;10421;49.142;9.232;2023-07-24T13:21:47;11.80;;;5.10;;
20525;SDS011;10421;49.142;9.232;2023-07-24T13:24:15;8.98;;;4.65;;
20525;SDS011;10421;49.142;9.232;2023-07-24T13:26:42;13.63;;;5.03;;
20525;SDS011;10421;49.142;9.232;2023-07-24T13:29:12;13.70;;;5.87;;
20525;SDS011;10421;49.142;9.232;2023-07-24T13:31:40;11.60;;;4.75;;
20525;SDS011;10421;49.142;9.232;2023-07-24T13:34:06;11.90;;;5.20;;
20525;SDS011;10421;49.142;9.232;2023-07-24T13:36:33;9.77;;;5.37;;
20525;SDS011;10421;49.142;9.232;2023-07-24T13:39:00;9.30;;;4.93;;
20525;SDS011;10421;49.142;9.232;2023-07-24T13:41:28;10.63;;;5.07;;
20525;SDS011;10421;49.142;9.232;2023-07-24T13:43:55;7.50;;;4.67;;
20525;SDS011;10421;49.142;9.232;2023-07-24T13:46:22;16.43;;;6.77;;
20525;SDS011;10421;49.142;9.232;2023-07-24T13:48:49;11.90;;;5.57;;
20525;SDS011;10421;49.142;9.232;2023-07-24T13:51:15;12.07;;;5.80;;
20525;SDS011;10421;49.142;9.232;2023-07-24T13:53:42;17.10;;;5.00;;
20525;SDS011;10421;49.142;9.232;2023-07-24T13:56:11;11.60;;;5.87;;
20525;SDS011;10421;49.142;9.232;2023-07-24T13:58:40;16.05;;;6.15;;
20525;SDS011;10421;49.142;9.232;2023-07-24T14:01:07;11.85;;;6.18;;
20525;SDS011;10421;49.142;9.232;2023-07-24T14:03:33;16.57;;;6.63;;
20525;SDS011;10421;49.142;9.232;2023-07-24T14:06:00;13.97;;;6.30;;
20525;SDS011;10421;49.142;9.232;2023-07-24T14:08:27;12.07;;;5.60;;
20525;SDS011;10421;49.142;9.232;2023-07-24T14:10:54;10.10;;;4.63;;
20525;SDS011;10421;49.142;9.232;2023-07-24T14:13:20;8.57;;;4.40;;
20525;SDS011;10421;49.142;9.232;2023-07-24T14:15:48;11.83;;;5.67;;
20525;SDS011;10421;49.142;9.232;2023-07-24T14:18:15;9.13;;;4.73;;
20525;SDS011;10421;49.142;9.232;2023-07-24T14:20:42;14.17;;;6.13;;
20525;SDS011;10421;49.142;9.232;2023-07-24T14:23:09;15.80;;;5.70;;
20525;SDS011;10421;49.142;9.232;2023-07-24T14:25:35;10.33;;;5.03;;
20525;SDS011;10421;49.142;9.232;2023-07-24T14:28:02;13.40;;;5.60;;
20525;SDS011;10421;49.142;9.232;2023-07-24T14:30:29;10.17;;;4.90;;
20525;SDS011;10421;49.142;9.232;2023-07-24T14:32:57;8.63;;;4.57;;
20525;SDS011;10421;49.142;9.232;2023-07-24T14:35:24;8.20;;;4.35;;
20525;SDS011;10421;49.142;9.232;2023-07-24T14:37:51;12.33;;;4.93;;